Frankfort, ME

12:45 AM EST on November 27, 2014 (GMT -0500)
Mosquito Mountain | Change Station
CLOSE
Current Station
Personal Weather Station
Location: Frankfort, ME
Elevation: 204 ft
Nearby Weather Stations
Active Advisory: Winter Storm Warning Active Notice: Public Information Statement

Elev 204 ft 44.59 °N, 68.87 °W | Updated 11 minutes ago

Snow
Snow
29.5 °F
Feels Like 30 °F
N
0.0
Wind Variable Wind from NNE

Today
High -- | Low -- °F
--% Chance of Precip.
Yesterday
High -- | Low -- °F
Precip. -- in
6:47 AM 3:58 PM
Waxing Crescent, 26% visible
Pressure 29.76 in
Visibility 0.5 miles
Clouds Mostly Cloudy 700 ft
Overcast 1000 ft
Windchill 30 °F
Dew Point 29 °F
Humidity 99%
Rainfall 0.00 in
Snow Depth Not available.
UV 0 out of 12
Pollen .10 out of 12
Air Quality Not available.
Flu Activity Not available.
SPECI KBGR 270524Z 36017G27KT 1/2SM R15/P6000FT SN FZFG BKN007 OVC010 M01/M02 A2976 RMK AO2 PK WND 01030/0510 P0001 T10111022 $

More Conditions Fewer Conditions

Pressure 29.76 in
Visibility 0.5 miles
Clouds Mostly Cloudy 700 ft
Overcast 1000 ft
Windchill 30 °F
Dew Point 29 °F
Humidity 99%
Rainfall 0.00 in
Snow Depth Not available.
UV 0 out of 12
Pollen .10 out of 12
Air Quality Not available.
Flu Activity Not available.
SPECI KBGR 270524Z 36017G27KT 1/2SM R15/P6000FT SN FZFG BKN007 OVC010 M01/M02 A2976 RMK AO2 PK WND 01030/0510 P0001 T10111022 $

More Conditions Fewer Conditions

10-Day Weather Forecast

Almanac

Astronomy

Nov. 27, 2014 Rise Set
Actual Time
Civil Twilight
Nautical Twilight
Astronomical Twilight
Moon
Length of Visible Light
Length of Day
Tomorrow will be .
, % of the Moon is Illuminated

Today's Extremes

State Highs State Lows

Community

WunderPhotos

Upload Photos

1,773,961 photos uploaded!

WunderBlogs® & News

Nearby

Air Quality

  Air Quality AQ Index Pollutant
Not available.

Snow Depth

Station Depth Elevation

Earthquake Activity

City Distance Mag. Time & Date
Minimum magnitude displayed is 2.5.

Coastal Water Temperatures

Place Temperature

Nearby Weather Stations